sensor_id;sensor_type;location;lat;lon;timestamp;temperature;humidity
53412;DHT22;39307;52.870;13.660;2024-01-27T00:00:17;5.30;66.60
53412;DHT22;39307;52.870;13.660;2024-01-27T00:02:44;5.30;66.50
53412;DHT22;39307;52.870;13.660;2024-01-27T00:05:11;5.30;66.60
53412;DHT22;39307;52.870;13.660;2024-01-27T00:07:38;5.30;66.50
53412;DHT22;39307;52.870;13.660;2024-01-27T00:10:05;5.30;66.50
53412;DHT22;39307;52.870;13.660;2024-01-27T00:12:32;5.30;66.50
53412;DHT22;39307;52.870;13.660;2024-01-27T00:14:59;5.30;66.50
53412;DHT22;39307;52.870;13.660;2024-01-27T00:17:26;5.30;66.50
53412;DHT22;39307;52.870;13.660;2024-01-27T00:19:53;5.30;66.50
53412;DHT22;39307;52.870;13.660;2024-01-27T00:22:20;5.20;66.50
53412;DHT22;39307;52.870;13.660;2024-01-27T00:24:47;5.20;66.40
53412;DHT22;39307;52.870;13.660;2024-01-27T00:27:14;5.30;66.50
53412;DHT22;39307;52.870;13.660;2024-01-27T00:29:41;5.30;66.40
53412;DHT22;39307;52.870;13.660;2024-01-27T00:32:08;5.30;66.40
53412;DHT22;39307;52.870;13.660;2024-01-27T00:34:34;5.30;66.30
53412;DHT22;39307;52.870;13.660;2024-01-27T00:37:01;5.30;66.30
53412;DHT22;39307;52.870;13.660;2024-01-27T00:39:28;5.30;66.40
53412;DHT22;39307;52.870;13.660;2024-01-27T00:41:55;5.20;66.30
53412;DHT22;39307;52.870;13.660;2024-01-27T00:44:22;5.30;66.30
53412;DHT22;39307;52.870;13.660;2024-01-27T00:46:48;5.30;66.20
53412;DHT22;39307;52.870;13.660;2024-01-27T00:49:15;5.30;66.30
53412;DHT22;39307;52.870;13.660;2024-01-27T00:51:42;5.30;66.20
53412;DHT22;39307;52.870;13.660;2024-01-27T00:54:09;5.20;66.20
53412;DHT22;39307;52.870;13.660;2024-01-27T00:56:35;5.20;66.20
53412;DHT22;39307;52.870;13.660;2024-01-27T00:59:02;5.30;66.30
53412;DHT22;39307;52.870;13.660;2024-01-27T01:01:29;5.20;66.20
53412;DHT22;39307;52.870;13.660;2024-01-27T01:03:56;5.30;66.20
53412;DHT22;39307;52.870;13.660;2024-01-27T01:06:23;5.30;66.20
53412;DHT22;39307;52.870;13.660;2024-01-27T01:08:50;5.30;66.20
53412;DHT22;39307;52.870;13.660;2024-01-27T01:11:17;5.20;66.20
53412;DHT22;39307;52.870;13.660;2024-01-27T01:13:43;5.30;66.20
53412;DHT22;39307;52.870;13.660;2024-01-27T01:16:10;5.20;66.20
53412;DHT22;39307;52.870;13.660;2024-01-27T01:18:37;5.30;66.20
53412;DHT22;39307;52.870;13.660;2024-01-27T01:21:04;5.20;66.20
53412;DHT22;39307;52.870;13.660;2024-01-27T01:23:31;5.20;66.20
53412;DHT22;39307;52.870;13.660;2024-01-27T01:25:57;5.20;66.20
53412;DHT22;39307;52.870;13.660;2024-01-27T01:28:24;5.30;66.10
53412;DHT22;39307;52.870;13.660;2024-01-27T01:30:51;5.30;66.20
53412;DHT22;39307;52.870;13.660;2024-01-27T01:33:18;5.20;66.20
53412;DHT22;39307;52.870;13.660;2024-01-27T01:35:44;5.20;66.10
53412;DHT22;39307;52.870;13.660;2024-01-27T01:38:11;5.20;66.20
53412;DHT22;39307;52.870;13.660;2024-01-27T01:40:38;5.20;66.10
53412;DHT22;39307;52.870;13.660;2024-01-27T01:43:10;5.20;66.20
53412;DHT22;39307;52.870;13.660;2024-01-27T01:45:37;5.20;66.40
53412;DHT22;39307;52.870;13.660;2024-01-27T01:48:05;5.20;66.20
53412;DHT22;39307;52.870;13.660;2024-01-27T01:50:32;5.20;66.20
53412;DHT22;39307;52.870;13.660;2024-01-27T01:53:00;5.20;66.20
53412;DHT22;39307;52.870;13.660;2024-01-27T01:55:27;5.20;66.20
53412;DHT22;39307;52.870;13.660;2024-01-27T01:57:54;5.20;66.20
53412;DHT22;39307;52.870;13.660;2024-01-27T02:00:21;5.20;66.20
53412;DHT22;39307;52.870;13.660;2024-01-27T02:02:48;5.20;66.20
53412;DHT22;39307;52.870;13.660;2024-01-27T02:05:15;5.20;66.20
53412;DHT22;39307;52.870;13.660;2024-01-27T02:07:41;5.20;66.20
53412;DHT22;39307;52.870;13.660;2024-01-27T02:10:15;5.20;66.20
53412;DHT22;39307;52.870;13.660;2024-01-27T02:12:44;5.20;66.20
53412;DHT22;39307;52.870;13.660;2024-01-27T02:15:12;5.20;66.20
53412;DHT22;39307;52.870;13.660;2024-01-27T02:17:40;5.10;66.20
53412;DHT22;39307;52.870;13.660;2024-01-27T02:20:07;5.20;66.30
53412;DHT22;39307;52.870;13.660;2024-01-27T02:22:35;5.20;66.20
53412;DHT22;39307;52.870;13.660;2024-01-27T02:25:03;5.10;66.20
53412;DHT22;39307;52.870;13.660;2024-01-27T02:27:30;5.20;66.20
53412;DHT22;39307;52.870;13.660;2024-01-27T02:29:57;5.10;66.20
53412;DHT22;39307;52.870;13.660;2024-01-27T02:32:24;5.20;66.20
53412;DHT22;39307;52.870;13.660;2024-01-27T02:34:51;5.10;66.20
53412;DHT22;39307;52.870;13.660;2024-01-27T02:37:19;5.20;66.20
53412;DHT22;39307;52.870;13.660;2024-01-27T02:39:45;5.20;66.20
53412;DHT22;39307;52.870;13.660;2024-01-27T02:42:12;5.20;66.20
53412;DHT22;39307;52.870;13.660;2024-01-27T02:44:39;5.20;66.20
53412;DHT22;39307;52.870;13.660;2024-01-27T02:47:06;5.10;66.20
53412;DHT22;39307;52.870;13.660;2024-01-27T02:49:33;5.10;66.20
53412;DHT22;39307;52.870;13.660;2024-01-27T02:51:59;5.10;66.20
53412;DHT22;39307;52.870;13.660;2024-01-27T02:54:26;5.20;66.20
53412;DHT22;39307;52.870;13.660;2024-01-27T02:56:53;5.10;66.20
53412;DHT22;39307;52.870;13.660;2024-01-27T02:59:20;5.10;66.20
53412;DHT22;39307;52.870;13.660;2024-01-27T03:01:47;5.20;66.20
53412;DHT22;39307;52.870;13.660;2024-01-27T03:04:13;5.10;66.20
53412;DHT22;39307;52.870;13.660;2024-01-27T03:06:40;5.10;66.20
53412;DHT22;39307;52.870;13.660;2024-01-27T03:09:06;5.20;66.20
53412;DHT22;39307;52.870;13.660;2024-01-27T03:11:33;5.10;66.20
53412;DHT22;39307;52.870;13.660;2024-01-27T03:14:00;5.20;66.20
53412;DHT22;39307;52.870;13.660;2024-01-27T03:16:26;5.10;66.20
53412;DHT22;39307;52.870;13.660;2024-01-27T03:18:53;5.10;66.20
53412;DHT22;39307;52.870;13.660;2024-01-27T03:21:20;5.10;66.20
53412;DHT22;39307;52.870;13.660;2024-01-27T03:23:47;5.10;66.20
53412;DHT22;39307;52.870;13.660;2024-01-27T03:26:14;5.10;66.20
53412;DHT22;39307;52.870;13.660;2024-01-27T03:28:41;5.10;66.20
53412;DHT22;39307;52.870;13.660;2024-01-27T03:31:07;5.10;66.20
53412;DHT22;39307;52.870;13.660;2024-01-27T03:33:34;5.10;66.30
53412;DHT22;39307;52.870;13.660;2024-01-27T03:36:01;5.10;66.20
53412;DHT22;39307;52.870;13.660;2024-01-27T03:38:28;5.10;66.20
53412;DHT22;39307;52.870;13.660;2024-01-27T03:40:55;5.10;66.30
53412;DHT22;39307;52.870;13.660;2024-01-27T03:43:22;5.10;66.30
53412;DHT22;39307;52.870;13.660;2024-01-27T03:45:48;5.10;66.20
53412;DHT22;39307;52.870;13.660;2024-01-27T03:48:15;5.10;66.30
53412;DHT22;39307;52.870;13.660;2024-01-27T03:50:42;5.10;66.20
53412;DHT22;39307;52.870;13.660;2024-01-27T03:53:09;5.10;66.20
53412;DHT22;39307;52.870;13.660;2024-01-27T03:55:36;5.10;66.20
53412;DHT22;39307;52.870;13.660;2024-01-27T03:58:02;5.10;66.20
53412;DHT22;39307;52.870;13.660;2024-01-27T04:00:29;5.10;66.30
53412;DHT22;39307;52.870;13.660;2024-01-27T04:02:57;5.10;66.30
53412;DHT22;39307;52.870;13.660;2024-01-27T04:05:23;5.10;66.30
53412;DHT22;39307;52.870;13.660;2024-01-27T04:07:50;5.10;66.30
53412;DHT22;39307;52.870;13.660;2024-01-27T04:10:18;5.10;66.30
53412;DHT22;39307;52.870;13.660;2024-01-27T04:12:45;5.10;66.40
53412;DHT22;39307;52.870;13.660;2024-01-27T04:15:12;5.10;66.40
53412;DHT22;39307;52.870;13.660;2024-01-27T04:17:39;5.10;66.40
53412;DHT22;39307;52.870;13.660;2024-01-27T04:20:07;5.10;66.40
53412;DHT22;39307;52.870;13.660;2024-01-27T04:22:35;5.10;66.40
53412;DHT22;39307;52.870;13.660;2024-01-27T04:25:02;5.10;66.40
53412;DHT22;39307;52.870;13.660;2024-01-27T04:27:30;5.10;66.40
53412;DHT22;39307;52.870;13.660;2024-01-27T04:29:57;5.10;66.40
53412;DHT22;39307;52.870;13.660;2024-01-27T04:32:23;5.10;66.30
53412;DHT22;39307;52.870;13.660;2024-01-27T04:34:50;5.10;66.30
53412;DHT22;39307;52.870;13.660;2024-01-27T04:37:17;5.10;66.40
53412;DHT22;39307;52.870;13.660;2024-01-27T04:39:44;5.10;66.40
53412;DHT22;39307;52.870;13.660;2024-01-27T04:42:11;5.10;66.40
53412;DHT22;39307;52.870;13.660;2024-01-27T04:44:40;5.10;66.30
53412;DHT22;39307;52.870;13.660;2024-01-27T04:47:07;5.10;66.40
53412;DHT22;39307;52.870;13.660;2024-01-27T04:49:34;5.10;66.40
53412;DHT22;39307;52.870;13.660;2024-01-27T04:52:01;5.10;66.40
53412;DHT22;39307;52.870;13.660;2024-01-27T04:54:28;5.10;66.50
53412;DHT22;39307;52.870;13.660;2024-01-27T04:56:55;5.10;66.50
53412;DHT22;39307;52.870;13.660;2024-01-27T04:59:22;5.10;66.50
53412;DHT22;39307;52.870;13.660;2024-01-27T05:01:48;5.10;66.50
53412;DHT22;39307;52.870;13.660;2024-01-27T05:04:15;5.10;66.50
53412;DHT22;39307;52.870;13.660;2024-01-27T05:06:45;5.10;66.50
53412;DHT22;39307;52.870;13.660;2024-01-27T05:09:12;5.10;66.40
53412;DHT22;39307;52.870;13.660;2024-01-27T05:11:39;5.10;66.40
53412;DHT22;39307;52.870;13.660;2024-01-27T05:14:06;5.10;66.40
53412;DHT22;39307;52.870;13.660;2024-01-27T05:16:32;5.10;66.40
53412;DHT22;39307;52.870;13.660;2024-01-27T05:18:59;5.10;66.50
53412;DHT22;39307;52.870;13.660;2024-01-27T05:21:26;5.10;66.40
53412;DHT22;39307;52.870;13.660;2024-01-27T05:23:53;5.10;66.40
53412;DHT22;39307;52.870;13.660;2024-01-27T05:26:20;5.10;66.40
53412;DHT22;39307;52.870;13.660;2024-01-27T05:28:47;5.10;66.40
53412;DHT22;39307;52.870;13.660;2024-01-27T05:31:14;5.10;66.40
53412;DHT22;39307;52.870;13.660;2024-01-27T05:33:42;5.10;66.50
53412;DHT22;39307;52.870;13.660;2024-01-27T05:36:09;5.10;66.50
53412;DHT22;39307;52.870;13.660;2024-01-27T05:38:35;5.10;66.40
53412;DHT22;39307;52.870;13.660;2024-01-27T05:41:02;5.10;66.40
53412;DHT22;39307;52.870;13.660;2024-01-27T05:43:30;5.10;66.40
53412;DHT22;39307;52.870;13.660;2024-01-27T05:45:57;5.10;66.40
53412;DHT22;39307;52.870;13.660;2024-01-27T05:48:24;5.10;66.40
53412;DHT22;39307;52.870;13.660;2024-01-27T05:51:00;5.10;66.40
53412;DHT22;39307;52.870;13.660;2024-01-27T05:53:28;5.10;66.40
53412;DHT22;39307;52.870;13.660;2024-01-27T05:55:55;5.10;66.50
53412;DHT22;39307;52.870;13.660;2024-01-27T05:58:22;5.10;66.40
53412;DHT22;39307;52.870;13.660;2024-01-27T06:00:49;5.10;66.40
53412;DHT22;39307;52.870;13.660;2024-01-27T06:03:16;5.10;66.40
53412;DHT22;39307;52.870;13.660;2024-01-27T06:05:43;5.10;66.30
53412;DHT22;39307;52.870;13.660;2024-01-27T06:08:10;5.10;66.40
53412;DHT22;39307;52.870;13.660;2024-01-27T06:10:37;5.10;66.40
53412;DHT22;39307;52.870;13.660;2024-01-27T06:13:04;5.10;66.50
53412;DHT22;39307;52.870;13.660;2024-01-27T06:15:31;5.10;66.40
53412;DHT22;39307;52.870;13.660;2024-01-27T06:17:58;5.10;66.50
53412;DHT22;39307;52.870;13.660;2024-01-27T06:20:25;5.10;66.50
53412;DHT22;39307;52.870;13.660;2024-01-27T06:22:52;5.10;66.50
53412;DHT22;39307;52.870;13.660;2024-01-27T06:25:20;5.10;66.40
53412;DHT22;39307;52.870;13.660;2024-01-27T06:27:47;5.10;66.50
53412;DHT22;39307;52.870;13.660;2024-01-27T06:30:14;5.10;66.40
53412;DHT22;39307;52.870;13.660;2024-01-27T06:32:41;5.10;66.30
53412;DHT22;39307;52.870;13.660;2024-01-27T06:35:08;5.10;66.30
53412;DHT22;39307;52.870;13.660;2024-01-27T06:37:35;5.10;66.30
53412;DHT22;39307;52.870;13.660;2024-01-27T06:40:02;5.00;66.30
53412;DHT22;39307;52.870;13.660;2024-01-27T06:42:29;5.10;66.20
53412;DHT22;39307;52.870;13.660;2024-01-27T06:44:56;5.10;66.30
53412;DHT22;39307;52.870;13.660;2024-01-27T06:47:23;5.00;66.40
53412;DHT22;39307;52.870;13.660;2024-01-27T06:49:50;5.10;66.40
53412;DHT22;39307;52.870;13.660;2024-01-27T06:52:17;5.10;66.30
53412;DHT22;39307;52.870;13.660;2024-01-27T06:54:44;5.10;66.30
53412;DHT22;39307;52.870;13.660;2024-01-27T06:57:21;5.10;66.30
53412;DHT22;39307;52.870;13.660;2024-01-27T06:59:50;5.10;66.30
53412;DHT22;39307;52.870;13.660;2024-01-27T07:02:18;5.10;66.30
53412;DHT22;39307;52.870;13.660;2024-01-27T07:04:48;5.00;66.40
53412;DHT22;39307;52.870;13.660;2024-01-27T07:07:15;5.00;66.40
53412;DHT22;39307;52.870;13.660;2024-01-27T07:09:42;5.10;66.30
53412;DHT22;39307;52.870;13.660;2024-01-27T07:12:09;5.00;66.40
53412;DHT22;39307;52.870;13.660;2024-01-27T07:14:36;5.00;66.40
53412;DHT22;39307;52.870;13.660;2024-01-27T07:17:04;5.10;66.40
53412;DHT22;39307;52.870;13.660;2024-01-27T07:19:31;5.10;66.50
53412;DHT22;39307;52.870;13.660;2024-01-27T07:21:58;5.00;66.50
53412;DHT22;39307;52.870;13.660;2024-01-27T07:24:25;5.00;66.40
53412;DHT22;39307;52.870;13.660;2024-01-27T07:26:52;5.00;66.30
53412;DHT22;39307;52.870;13.660;2024-01-27T07:29:19;5.10;66.30
53412;DHT22;39307;52.870;13.660;2024-01-27T07:31:46;5.00;66.40
53412;DHT22;39307;52.870;13.660;2024-01-27T07:34:14;5.00;66.30
53412;DHT22;39307;52.870;13.660;2024-01-27T07:36:40;5.00;66.30
53412;DHT22;39307;52.870;13.660;2024-01-27T07:39:07;5.00;66.30
53412;DHT22;39307;52.870;13.660;2024-01-27T07:41:34;5.00;66.30
53412;DHT22;39307;52.870;13.660;2024-01-27T07:44:11;5.00;66.30
53412;DHT22;39307;52.870;13.660;2024-01-27T07:46:42;5.00;66.20
53412;DHT22;39307;52.870;13.660;2024-01-27T07:49:09;5.00;66.40
53412;DHT22;39307;52.870;13.660;2024-01-27T07:51:35;5.00;66.20
53412;DHT22;39307;52.870;13.660;2024-01-27T07:54:02;5.00;66.40
53412;DHT22;39307;52.870;13.660;2024-01-27T07:56:29;5.00;66.50
53412;DHT22;39307;52.870;13.660;2024-01-27T07:58:56;5.00;66.40
53412;DHT22;39307;52.870;13.660;2024-01-27T08:01:23;5.00;66.40
53412;DHT22;39307;52.870;13.660;2024-01-27T08:03:50;5.00;66.40
53412;DHT22;39307;52.870;13.660;2024-01-27T08:06:19;5.00;66.40
53412;DHT22;39307;52.870;13.660;2024-01-27T08:08:53;5.00;66.50
53412;DHT22;39307;52.870;13.660;2024-01-27T08:11:20;5.00;66.60
53412;DHT22;39307;52.870;13.660;2024-01-27T08:13:47;5.00;66.60
53412;DHT22;39307;52.870;13.660;2024-01-27T08:16:14;5.00;66.80
53412;DHT22;39307;52.870;13.660;2024-01-27T08:18:42;5.00;66.70
53412;DHT22;39307;52.870;13.660;2024-01-27T08:21:09;5.00;66.50
53412;DHT22;39307;52.870;13.660;2024-01-27T08:23:36;5.00;66.50
53412;DHT22;39307;52.870;13.660;2024-01-27T08:26:03;5.00;66.70
53412;DHT22;39307;52.870;13.660;2024-01-27T08:28:31;5.00;66.70
53412;DHT22;39307;52.870;13.660;2024-01-27T08:30:58;5.00;66.70
53412;DHT22;39307;52.870;13.660;2024-01-27T08:33:25;5.00;66.60
53412;DHT22;39307;52.870;13.660;2024-01-27T08:35:51;5.00;66.70
53412;DHT22;39307;52.870;13.660;2024-01-27T08:38:18;5.00;66.80
53412;DHT22;39307;52.870;13.660;2024-01-27T08:40:45;5.00;66.70
53412;DHT22;39307;52.870;13.660;2024-01-27T08:43:12;5.00;66.90
53412;DHT22;39307;52.870;13.660;2024-01-27T08:45:39;5.00;66.60
53412;DHT22;39307;52.870;13.660;2024-01-27T08:48:06;5.00;66.70
53412;DHT22;39307;52.870;13.660;2024-01-27T08:50:33;5.00;66.60
53412;DHT22;39307;52.870;13.660;2024-01-27T08:53:00;5.00;66.60
53412;DHT22;39307;52.870;13.660;2024-01-27T08:55:27;5.00;66.50
53412;DHT22;39307;52.870;13.660;2024-01-27T08:57:58;5.00;66.50
53412;DHT22;39307;52.870;13.660;2024-01-27T09:00:26;5.00;66.50
53412;DHT22;39307;52.870;13.660;2024-01-27T09:02:52;5.00;66.50
53412;DHT22;39307;52.870;13.660;2024-01-27T09:05:19;5.00;66.60
53412;DHT22;39307;52.870;13.660;2024-01-27T09:07:46;5.00;66.50
53412;DHT22;39307;52.870;13.660;2024-01-27T09:10:13;5.00;66.50
53412;DHT22;39307;52.870;13.660;2024-01-27T09:12:40;5.00;66.50
53412;DHT22;39307;52.870;13.660;2024-01-27T09:15:07;5.00;67.00
53412;DHT22;39307;52.870;13.660;2024-01-27T09:17:34;5.00;67.00
53412;DHT22;39307;52.870;13.660;2024-01-27T09:20:00;5.00;67.20
53412;DHT22;39307;52.870;13.660;2024-01-27T09:22:27;5.00;67.30
53412;DHT22;39307;52.870;13.660;2024-01-27T09:24:54;5.00;67.30
53412;DHT22;39307;52.870;13.660;2024-01-27T09:27:21;5.00;67.10
53412;DHT22;39307;52.870;13.660;2024-01-27T09:29:48;5.00;67.30
53412;DHT22;39307;52.870;13.660;2024-01-27T09:32:15;5.00;67.10
53412;DHT22;39307;52.870;13.660;2024-01-27T09:34:42;5.00;67.20
53412;DHT22;39307;52.870;13.660;2024-01-27T09:37:09;5.00;67.20
53412;DHT22;39307;52.870;13.660;2024-01-27T09:39:36;5.00;67.20
53412;DHT22;39307;52.870;13.660;2024-01-27T09:42:06;5.00;67.10
53412;DHT22;39307;52.870;13.660;2024-01-27T09:44:35;5.00;67.20
53412;DHT22;39307;52.870;13.660;2024-01-27T09:47:02;5.00;67.20
53412;DHT22;39307;52.870;13.660;2024-01-27T09:49:31;5.00;66.90
53412;DHT22;39307;52.870;13.660;2024-01-27T09:51:58;5.00;67.00
53412;DHT22;39307;52.870;13.660;2024-01-27T09:54:25;5.00;67.00
53412;DHT22;39307;52.870;13.660;2024-01-27T09:56:52;5.00;67.10
53412;DHT22;39307;52.870;13.660;2024-01-27T09:59:21;5.00;67.10
53412;DHT22;39307;52.870;13.660;2024-01-27T10:01:48;5.00;67.10
53412;DHT22;39307;52.870;13.660;2024-01-27T10:04:16;5.00;67.10
53412;DHT22;39307;52.870;13.660;2024-01-27T10:06:42;5.00;67.00
53412;DHT22;39307;52.870;13.660;2024-01-27T10:09:09;5.00;67.00
53412;DHT22;39307;52.870;13.660;2024-01-27T10:11:37;5.00;66.90
53412;DHT22;39307;52.870;13.660;2024-01-27T10:14:06;5.00;67.10
53412;DHT22;39307;52.870;13.660;2024-01-27T10:16:41;5.00;67.10
53412;DHT22;39307;52.870;13.660;2024-01-27T10:19:19;5.00;67.00
53412;DHT22;39307;52.870;13.660;2024-01-27T10:21:47;5.00;66.90
53412;DHT22;39307;52.870;13.660;2024-01-27T10:24:14;5.00;66.90
53412;DHT22;39307;52.870;13.660;2024-01-27T10:26:41;5.00;67.00
53412;DHT22;39307;52.870;13.660;2024-01-27T10:29:09;5.00;67.00
53412;DHT22;39307;52.870;13.660;2024-01-27T10:31:36;5.00;67.00
53412;DHT22;39307;52.870;13.660;2024-01-27T10:34:03;5.00;66.90
53412;DHT22;39307;52.870;13.660;2024-01-27T10:36:40;5.00;66.90
53412;DHT22;39307;52.870;13.660;2024-01-27T10:39:17;5.00;66.90
53412;DHT22;39307;52.870;13.660;2024-01-27T10:41:47;5.00;67.30
53412;DHT22;39307;52.870;13.660;2024-01-27T10:44:16;5.00;67.20
53412;DHT22;39307;52.870;13.660;2024-01-27T10:46:45;5.00;67.40
53412;DHT22;39307;52.870;13.660;2024-01-27T10:49:16;5.00;67.50
53412;DHT22;39307;52.870;13.660;2024-01-27T10:51:54;5.00;67.30
53412;DHT22;39307;52.870;13.660;2024-01-27T10:54:26;5.00;67.40
53412;DHT22;39307;52.870;13.660;2024-01-27T10:56:57;5.00;67.40
53412;DHT22;39307;52.870;13.660;2024-01-27T10:59:27;5.00;67.40
53412;DHT22;39307;52.870;13.660;2024-01-27T11:01:54;5.00;67.20
53412;DHT22;39307;52.870;13.660;2024-01-27T11:04:22;5.00;67.30
53412;DHT22;39307;52.870;13.660;2024-01-27T11:06:49;5.00;67.20
53412;DHT22;39307;52.870;13.660;2024-01-27T11:09:18;5.00;67.10
53412;DHT22;39307;52.870;13.660;2024-01-27T11:11:45;5.00;67.20
53412;DHT22;39307;52.870;13.660;2024-01-27T11:14:13;5.00;67.30
53412;DHT22;39307;52.870;13.660;2024-01-27T11:16:40;5.00;67.10
53412;DHT22;39307;52.870;13.660;2024-01-27T11:19:07;5.00;67.10
53412;DHT22;39307;52.870;13.660;2024-01-27T11:21:34;5.00;67.30
53412;DHT22;39307;52.870;13.660;2024-01-27T11:24:01;5.00;67.50
53412;DHT22;39307;52.870;13.660;2024-01-27T11:26:39;5.00;67.60
53412;DHT22;39307;52.870;13.660;2024-01-27T11:29:09;5.00;67.30
53412;DHT22;39307;52.870;13.660;2024-01-27T11:31:36;5.00;67.60
53412;DHT22;39307;52.870;13.660;2024-01-27T11:34:11;5.00;67.50
53412;DHT22;39307;52.870;13.660;2024-01-27T11:36:38;5.00;67.10
53412;DHT22;39307;52.870;13.660;2024-01-27T11:39:05;5.00;67.50
53412;DHT22;39307;52.870;13.660;2024-01-27T11:42:07;5.00;67.40
53412;DHT22;39307;52.870;13.660;2024-01-27T11:44:36;5.00;67.90
53412;DHT22;39307;52.870;13.660;2024-01-27T11:47:03;5.00;67.60
53412;DHT22;39307;52.870;13.660;2024-01-27T11:49:31;5.00;67.40
53412;DHT22;39307;52.870;13.660;2024-01-27T11:51:59;5.00;67.70
53412;DHT22;39307;52.870;13.660;2024-01-27T11:54:27;5.00;67.50
53412;DHT22;39307;52.870;13.660;2024-01-27T11:56:54;5.00;67.30
53412;DHT22;39307;52.870;13.660;2024-01-27T11:59:21;5.00;67.50
53412;DHT22;39307;52.870;13.660;2024-01-27T12:01:49;5.00;67.50
53412;DHT22;39307;52.870;13.660;2024-01-27T12:04:16;5.00;67.50
53412;DHT22;39307;52.870;13.660;2024-01-27T12:06:44;5.00;67.10
53412;DHT22;39307;52.870;13.660;2024-01-27T12:09:10;5.00;67.60
53412;DHT22;39307;52.870;13.660;2024-01-27T12:11:38;5.00;67.20
53412;DHT22;39307;52.870;13.660;2024-01-27T12:14:05;5.00;67.40
53412;DHT22;39307;52.870;13.660;2024-01-27T12:16:32;5.00;67.00
53412;DHT22;39307;52.870;13.660;2024-01-27T12:18:59;5.00;67.30
53412;DHT22;39307;52.870;13.660;2024-01-27T12:21:26;5.00;67.20
53412;DHT22;39307;52.870;13.660;2024-01-27T12:23:54;5.00;67.30
53412;DHT22;39307;52.870;13.660;2024-01-27T12:26:24;6.80;63.70
53412;DHT22;39307;52.870;13.660;2024-01-27T12:28:55;8.90;57.80
53412;DHT22;39307;52.870;13.660;2024-01-27T12:31:23;8.50;58.10
53412;DHT22;39307;52.870;13.660;2024-01-27T12:33:54;7.80;60.00
53412;DHT22;39307;52.870;13.660;2024-01-27T12:36:22;7.20;61.80
53412;DHT22;39307;52.870;13.660;2024-01-27T12:39:02;6.70;63.00
53412;DHT22;39307;52.870;13.660;2024-01-27T12:41:30;6.40;64.10
53412;DHT22;39307;52.870;13.660;2024-01-27T12:43:57;6.20;64.70
53412;DHT22;39307;52.870;13.660;2024-01-27T12:46:24;6.00;65.10
53412;DHT22;39307;52.870;13.660;2024-01-27T12:48:51;5.90;65.60
53412;DHT22;39307;52.870;13.660;2024-01-27T12:51:18;5.90;65.70
53412;DHT22;39307;52.870;13.660;2024-01-27T12:53:45;5.80;65.80
53412;DHT22;39307;52.870;13.660;2024-01-27T12:56:13;5.80;65.90
53412;DHT22;39307;52.870;13.660;2024-01-27T12:58:41;5.80;66.00
53412;DHT22;39307;52.870;13.660;2024-01-27T13:01:08;5.70;66.10
53412;DHT22;39307;52.870;13.660;2024-01-27T13:03:35;5.70;66.10
53412;DHT22;39307;52.870;13.660;2024-01-27T13:06:02;5.70;66.10
53412;DHT22;39307;52.870;13.660;2024-01-27T13:08:30;5.60;66.40
53412;DHT22;39307;52.870;13.660;2024-01-27T13:10:57;5.60;66.30
53412;DHT22;39307;52.870;13.660;2024-01-27T13:13:24;5.60;66.40
53412;DHT22;39307;52.870;13.660;2024-01-27T13:15:50;5.60;66.30
53412;DHT22;39307;52.870;13.660;2024-01-27T13:18:17;5.60;66.50
53412;DHT22;39307;52.870;13.660;2024-01-27T13:20:44;5.60;66.50
53412;DHT22;39307;52.870;13.660;2024-01-27T13:23:11;5.60;66.40
53412;DHT22;39307;52.870;13.660;2024-01-27T13:25:38;5.50;66.50
53412;DHT22;39307;52.870;13.660;2024-01-27T13:28:05;5.50;66.50
53412;DHT22;39307;52.870;13.660;2024-01-27T13:30:32;5.50;66.60
53412;DHT22;39307;52.870;13.660;2024-01-27T13:32:59;5.50;66.90
53412;DHT22;39307;52.870;13.660;2024-01-27T13:35:25;5.50;66.70
53412;DHT22;39307;52.870;13.660;2024-01-27T13:37:52;5.50;66.50
53412;DHT22;39307;52.870;13.660;2024-01-27T13:40:19;5.50;66.50
53412;DHT22;39307;52.870;13.660;2024-01-27T13:42:45;5.50;66.50
53412;DHT22;39307;52.870;13.660;2024-01-27T13:45:12;5.50;66.50
53412;DHT22;39307;52.870;13.660;2024-01-27T13:47:39;5.50;66.70
53412;DHT22;39307;52.870;13.660;2024-01-27T13:50:06;5.50;66.60
53412;DHT22;39307;52.870;13.660;2024-01-27T13:52:33;5.50;66.60
53412;DHT22;39307;52.870;13.660;2024-01-27T13:55:00;5.50;66.50
53412;DHT22;39307;52.870;13.660;2024-01-27T13:57:27;5.50;66.40
53412;DHT22;39307;52.870;13.660;2024-01-27T13:59:54;5.50;66.50
53412;DHT22;39307;52.870;13.660;2024-01-27T14:02:20;5.50;66.50
53412;DHT22;39307;52.870;13.660;2024-01-27T14:04:47;5.50;66.60
53412;DHT22;39307;52.870;13.660;2024-01-27T14:07:14;5.50;66.60
53412;DHT22;39307;52.870;13.660;2024-01-27T14:09:41;5.50;66.70
53412;DHT22;39307;52.870;13.660;2024-01-27T14:12:09;5.50;66.50
53412;DHT22;39307;52.870;13.660;2024-01-27T14:14:36;5.50;66.50
53412;DHT22;39307;52.870;13.660;2024-01-27T14:17:03;5.50;66.70
53412;DHT22;39307;52.870;13.660;2024-01-27T14:19:30;5.50;66.60
53412;DHT22;39307;52.870;13.660;2024-01-27T14:21:57;5.50;66.60
53412;DHT22;39307;52.870;13.660;2024-01-27T14:24:24;5.40;66.50
53412;DHT22;39307;52.870;13.660;2024-01-27T14:26:51;5.50;66.50
53412;DHT22;39307;52.870;13.660;2024-01-27T14:29:19;5.50;66.50
53412;DHT22;39307;52.870;13.660;2024-01-27T14:31:45;5.40;66.50
53412;DHT22;39307;52.870;13.660;2024-01-27T14:34:12;5.40;66.40
53412;DHT22;39307;52.870;13.660;2024-01-27T14:36:39;5.50;66.50
53412;DHT22;39307;52.870;13.660;2024-01-27T14:39:06;5.40;66.60
53412;DHT22;39307;52.870;13.660;2024-01-27T14:41:33;5.40;66.40
53412;DHT22;39307;52.870;13.660;2024-01-27T14:43:59;5.40;66.50
53412;DHT22;39307;52.870;13.660;2024-01-27T14:46:26;5.40;66.60
53412;DHT22;39307;52.870;13.660;2024-01-27T14:48:53;5.40;66.70
53412;DHT22;39307;52.870;13.660;2024-01-27T14:51:20;5.40;66.50
53412;DHT22;39307;52.870;13.660;2024-01-27T14:53:47;5.40;66.60
53412;DHT22;39307;52.870;13.660;2024-01-27T14:56:14;5.40;66.50
53412;DHT22;39307;52.870;13.660;2024-01-27T14:58:41;5.40;66.60
53412;DHT22;39307;52.870;13.660;2024-01-27T15:01:08;5.40;66.70
53412;DHT22;39307;52.870;13.660;2024-01-27T15:03:34;5.40;66.50
53412;DHT22;39307;52.870;13.660;2024-01-27T15:06:01;5.40;66.40
53412;DHT22;39307;52.870;13.660;2024-01-27T15:08:29;5.40;66.50
53412;DHT22;39307;52.870;13.660;2024-01-27T15:10:55;5.30;66.50
53412;DHT22;39307;52.870;13.660;2024-01-27T15:13:22;5.40;66.40
53412;DHT22;39307;52.870;13.660;2024-01-27T15:15:48;5.30;66.50
53412;DHT22;39307;52.870;13.660;2024-01-27T15:18:15;5.40;66.40
53412;DHT22;39307;52.870;13.660;2024-01-27T15:20:42;5.30;66.40
53412;DHT22;39307;52.870;13.660;2024-01-27T15:23:09;5.30;66.40
53412;DHT22;39307;52.870;13.660;2024-01-27T15:25:36;5.30;66.30
53412;DHT22;39307;52.870;13.660;2024-01-27T15:28:03;5.30;66.30
53412;DHT22;39307;52.870;13.660;2024-01-27T15:30:30;5.30;66.30